sensor_id;sensor_type;location;lat;lon;timestamp;pressure;altitude;pressure_sealevel;temperature;humidity
60646;BME280;46462;32.608;-117.032;2023-01-29T00:01:39;99325.68;;;21.44;34.56
60646;BME280;46462;32.608;-117.032;2023-01-29T00:04:09;99331.30;;;21.68;34.23
60646;BME280;46462;32.608;-117.032;2023-01-29T00:06:39;99333.48;;;21.76;34.08
60646;BME280;46462;32.608;-117.032;2023-01-29T00:09:10;99332.28;;;21.76;34.21
60646;BME280;46462;32.608;-117.032;2023-01-29T00:11:40;99330.75;;;21.62;34.48
60646;BME280;46462;32.608;-117.032;2023-01-29T00:14:10;99329.30;;;21.57;34.71
60646;BME280;46462;32.608;-117.032;2023-01-29T00:16:40;99329.28;;;21.69;34.50
60646;BME280;46462;32.608;-117.032;2023-01-29T00:19:11;99328.16;;;21.57;34.80
60646;BME280;46462;32.608;-117.032;2023-01-29T00:21:41;99331.75;;;21.76;34.54
60646;BME280;46462;32.608;-117.032;2023-01-29T00:24:12;99333.05;;;21.89;34.26
60646;BME280;46462;32.608;-117.032;2023-01-29T00:26:41;99333.99;;;21.73;34.48
60646;BME280;46462;32.608;-117.032;2023-01-29T00:29:12;99334.03;;;21.73;34.48
60646;BME280;46462;32.608;-117.032;2023-01-29T00:31:44;99334.65;;;21.84;34.51
60646;BME280;46462;32.608;-117.032;2023-01-29T00:34:12;99336.94;;;21.86;34.43
60646;BME280;46462;32.608;-117.032;2023-01-29T00:36:42;99341.37;;;21.79;34.55
60646;BME280;46462;32.608;-117.032;2023-01-29T00:39:12;99344.69;;;21.75;34.43
60646;BME280;46462;32.608;-117.032;2023-01-29T00:41:43;99346.53;;;21.76;34.67
60646;BME280;46462;32.608;-117.032;2023-01-29T00:44:13;99347.62;;;21.76;34.69
60646;BME280;46462;32.608;-117.032;2023-01-29T00:46:43;99353.87;;;21.97;34.47
60646;BME280;46462;32.608;-117.032;2023-01-29T00:49:13;99351.91;;;21.98;34.40
60646;BME280;46462;32.608;-117.032;2023-01-29T00:51:43;99355.95;;;22.05;34.03
60646;BME280;46462;32.608;-117.032;2023-01-29T00:54:14;99357.90;;;21.92;34.17
60646;BME280;46462;32.608;-117.032;2023-01-29T00:56:44;99360.57;;;21.93;34.15
60646;BME280;46462;32.608;-117.032;2023-01-29T00:59:14;99366.57;;;21.92;34.23
60646;BME280;46462;32.608;-117.032;2023-01-29T01:01:44;99372.24;;;21.96;34.17
60646;BME280;46462;32.608;-117.032;2023-01-29T01:04:15;99376.22;;;21.98;34.47
60646;BME280;46462;32.608;-117.032;2023-01-29T01:06:45;99376.41;;;22.03;34.28
60646;BME280;46462;32.608;-117.032;2023-01-29T01:09:15;99376.59;;;22.05;34.19
60646;BME280;46462;32.608;-117.032;2023-01-29T01:11:45;99377.02;;;22.08;33.93
60646;BME280;46462;32.608;-117.032;2023-01-29T01:14:15;99380.69;;;22.10;33.96
60646;BME280;46462;32.608;-117.032;2023-01-29T01:16:46;99384.43;;;22.17;33.79
60646;BME280;46462;32.608;-117.032;2023-01-29T01:19:16;99383.43;;;22.13;33.91
60646;BME280;46462;32.608;-117.032;2023-01-29T01:21:46;99382.06;;;22.19;33.69
60646;BME280;46462;32.608;-117.032;2023-01-29T01:24:16;99386.22;;;22.13;33.88
60646;BME280;46462;32.608;-117.032;2023-01-29T01:26:46;99389.89;;;22.15;34.07
60646;BME280;46462;32.608;-117.032;2023-01-29T01:29:17;99391.49;;;22.05;34.20
60646;BME280;46462;32.608;-117.032;2023-01-29T01:31:47;99388.27;;;22.02;34.40
60646;BME280;46462;32.608;-117.032;2023-01-29T01:34:17;99392.41;;;22.08;34.32
60646;BME280;46462;32.608;-117.032;2023-01-29T01:36:48;99393.07;;;22.07;34.23
60646;BME280;46462;32.608;-117.032;2023-01-29T01:39:18;99395.48;;;22.01;34.37
60646;BME280;46462;32.608;-117.032;2023-01-29T01:41:48;99397.38;;;22.05;34.44
60646;BME280;46462;32.608;-117.032;2023-01-29T01:46:48;99396.68;;;22.09;34.38
60646;BME280;46462;32.608;-117.032;2023-01-29T01:49:19;99398.49;;;22.06;34.15
60646;BME280;46462;32.608;-117.032;2023-01-29T01:51:50;99401.50;;;22.05;34.38
60646;BME280;46462;32.608;-117.032;2023-01-29T01:54:22;99403.43;;;22.04;34.49
60646;BME280;46462;32.608;-117.032;2023-01-29T01:56:53;99404.02;;;22.05;34.43
60646;BME280;46462;32.608;-117.032;2023-01-29T01:59:20;99405.98;;;22.04;34.42
60646;BME280;46462;32.608;-117.032;2023-01-29T02:01:52;99411.88;;;22.06;34.49
60646;BME280;46462;32.608;-117.032;2023-01-29T02:04:22;99412.73;;;22.05;34.44
60646;BME280;46462;32.608;-117.032;2023-01-29T02:06:51;99412.99;;;22.04;34.44
60646;BME280;46462;32.608;-117.032;2023-01-29T02:09:24;99415.83;;;22.05;34.54
60646;BME280;46462;32.608;-117.032;2023-01-29T02:11:51;99419.69;;;22.06;34.67
60646;BME280;46462;32.608;-117.032;2023-01-29T02:14:21;99419.21;;;22.00;34.57
60646;BME280;46462;32.608;-117.032;2023-01-29T02:16:51;99417.09;;;22.02;34.61
60646;BME280;46462;32.608;-117.032;2023-01-29T02:19:30;99418.47;;;22.05;34.57
60646;BME280;46462;32.608;-117.032;2023-01-29T02:27:00;99420.40;;;22.01;34.68
60646;BME280;46462;32.608;-117.032;2023-01-29T02:29:26;99423.86;;;21.94;34.74
60646;BME280;46462;32.608;-117.032;2023-01-29T02:32:01;99425.62;;;22.00;34.77
60646;BME280;46462;32.608;-117.032;2023-01-29T02:34:31;99425.15;;;21.97;34.61
60646;BME280;46462;32.608;-117.032;2023-01-29T02:36:58;99424.54;;;22.03;34.68
60646;BME280;46462;32.608;-117.032;2023-01-29T02:39:29;99422.78;;;22.00;34.72
60646;BME280;46462;32.608;-117.032;2023-01-29T02:42:00;99425.67;;;21.94;34.71
60646;BME280;46462;32.608;-117.032;2023-01-29T02:44:27;99424.57;;;21.87;34.93
60646;BME280;46462;32.608;-117.032;2023-01-29T02:46:59;99428.85;;;22.02;34.83
60646;BME280;46462;32.608;-117.032;2023-01-29T02:49:30;99430.26;;;22.11;34.53
60646;BME280;46462;32.608;-117.032;2023-01-29T02:52:01;99429.65;;;22.03;34.46
60646;BME280;46462;32.608;-117.032;2023-01-29T02:54:31;99431.74;;;22.04;34.45
60646;BME280;46462;32.608;-117.032;2023-01-29T02:56:58;99436.03;;;22.02;34.49
60646;BME280;46462;32.608;-117.032;2023-01-29T02:59:30;99433.14;;;22.07;34.56
60646;BME280;46462;32.608;-117.032;2023-01-29T03:01:58;99433.33;;;22.14;34.73
60646;BME280;46462;32.608;-117.032;2023-01-29T03:04:28;99430.71;;;22.09;34.59
60646;BME280;46462;32.608;-117.032;2023-01-29T03:06:59;99433.10;;;22.13;34.64
60646;BME280;46462;32.608;-117.032;2023-01-29T03:09:31;99434.96;;;22.06;34.62
60646;BME280;46462;32.608;-117.032;2023-01-29T03:12:01;99439.66;;;21.93;34.82
60646;BME280;46462;32.608;-117.032;2023-01-29T03:14:33;99439.65;;;21.96;34.85
60646;BME280;46462;32.608;-117.032;2023-01-29T03:16:56;99438.49;;;22.01;34.96
60646;BME280;46462;32.608;-117.032;2023-01-29T03:19:30;99437.61;;;21.97;34.96
60646;BME280;46462;32.608;-117.032;2023-01-29T03:21:58;99441.35;;;21.98;34.80
60646;BME280;46462;32.608;-117.032;2023-01-29T03:24:35;99443.02;;;21.91;35.00
60646;BME280;46462;32.608;-117.032;2023-01-29T03:27:00;99446.82;;;21.94;35.10
60646;BME280;46462;32.608;-117.032;2023-01-29T03:29:29;99445.86;;;21.91;35.02
60646;BME280;46462;32.608;-117.032;2023-01-29T03:31:58;99448.93;;;21.96;35.10
60646;BME280;46462;32.608;-117.032;2023-01-29T03:34:29;99446.41;;;21.90;35.13
60646;BME280;46462;32.608;-117.032;2023-01-29T03:37:02;99448.25;;;21.95;35.30
60646;BME280;46462;32.608;-117.032;2023-01-29T03:39:29;99450.27;;;21.90;35.14
60646;BME280;46462;32.608;-117.032;2023-01-29T03:42:03;99453.34;;;21.90;35.22
60646;BME280;46462;32.608;-117.032;2023-01-29T03:44:34;99455.96;;;21.91;35.17
60646;BME280;46462;32.608;-117.032;2023-01-29T03:47:07;99460.45;;;21.92;35.08
60646;BME280;46462;32.608;-117.032;2023-01-29T03:49:34;99461.81;;;21.90;35.09
60646;BME280;46462;32.608;-117.032;2023-01-29T03:52:03;99463.66;;;21.86;35.27
60646;BME280;46462;32.608;-117.032;2023-01-29T03:54:36;99458.36;;;21.87;35.26
60646;BME280;46462;32.608;-117.032;2023-01-29T03:57:03;99459.85;;;21.94;35.22
60646;BME280;46462;32.608;-117.032;2023-01-29T03:59:35;99460.77;;;21.90;35.28
60646;BME280;46462;32.608;-117.032;2023-01-29T04:02:03;99460.60;;;21.85;35.38
60646;BME280;46462;32.608;-117.032;2023-01-29T04:04:33;99461.28;;;21.84;35.43
60646;BME280;46462;32.608;-117.032;2023-01-29T04:07:03;99465.52;;;21.81;35.51
60646;BME280;46462;32.608;-117.032;2023-01-29T04:09:35;99460.29;;;21.78;35.48
60646;BME280;46462;32.608;-117.032;2023-01-29T04:12:04;99462.09;;;21.81;35.33
60646;BME280;46462;32.608;-117.032;2023-01-29T04:14:32;99461.85;;;21.85;35.37
60646;BME280;46462;32.608;-117.032;2023-01-29T04:17:07;99462.07;;;21.79;35.24
60646;BME280;46462;32.608;-117.032;2023-01-29T04:19:33;99463.39;;;21.80;35.22
60646;BME280;46462;32.608;-117.032;2023-01-29T04:22:06;99464.92;;;21.83;35.43
60646;BME280;46462;32.608;-117.032;2023-01-29T04:24:33;99466.14;;;21.82;35.48
60646;BME280;46462;32.608;-117.032;2023-01-29T04:27:15;99465.02;;;21.81;35.64
60646;BME280;46462;32.608;-117.032;2023-01-29T04:29:44;99464.75;;;21.78;35.49
60646;BME280;46462;32.608;-117.032;2023-01-29T04:32:10;99464.19;;;21.81;35.39
60646;BME280;46462;32.608;-117.032;2023-01-29T04:34:41;99463.66;;;21.80;35.42
60646;BME280;46462;32.608;-117.032;2023-01-29T04:37:09;99465.77;;;21.78;35.51
60646;BME280;46462;32.608;-117.032;2023-01-29T04:39:44;99467.21;;;21.73;35.62
60646;BME280;46462;32.608;-117.032;2023-01-29T04:42:09;99463.07;;;21.72;35.70
60646;BME280;46462;32.608;-117.032;2023-01-29T04:44:39;99461.80;;;21.70;35.66
60646;BME280;46462;32.608;-117.032;2023-01-29T04:47:13;99462.39;;;21.71;35.75
60646;BME280;46462;32.608;-117.032;2023-01-29T04:49:42;99461.68;;;21.74;35.70
60646;BME280;46462;32.608;-117.032;2023-01-29T04:52:11;99465.05;;;21.81;35.47
60646;BME280;46462;32.608;-117.032;2023-01-29T04:54:47;99464.03;;;21.74;35.71
60646;BME280;46462;32.608;-117.032;2023-01-29T04:57:08;99462.49;;;21.74;35.66
60646;BME280;46462;32.608;-117.032;2023-01-29T04:59:39;99463.65;;;21.72;35.62
60646;BME280;46462;32.608;-117.032;2023-01-29T05:02:07;99463.66;;;21.76;35.59
60646;BME280;46462;32.608;-117.032;2023-01-29T05:04:38;99464.41;;;21.74;35.77
60646;BME280;46462;32.608;-117.032;2023-01-29T05:07:10;99465.07;;;21.75;35.71
60646;BME280;46462;32.608;-117.032;2023-01-29T05:09:38;99463.31;;;21.69;35.60
60646;BME280;46462;32.608;-117.032;2023-01-29T05:12:09;99466.03;;;21.77;35.69
60646;BME280;46462;32.608;-117.032;2023-01-29T05:14:38;99464.79;;;21.72;35.61
60646;BME280;46462;32.608;-117.032;2023-01-29T05:17:13;99465.91;;;21.71;35.90
60646;BME280;46462;32.608;-117.032;2023-01-29T05:19:37;99465.53;;;21.65;35.97
60646;BME280;46462;32.608;-117.032;2023-01-29T05:22:10;99469.57;;;21.63;35.82
60646;BME280;46462;32.608;-117.032;2023-01-29T05:24:38;99475.47;;;21.67;35.80
60646;BME280;46462;32.608;-117.032;2023-01-29T05:27:15;99476.57;;;21.67;35.85
60646;BME280;46462;32.608;-117.032;2023-01-29T05:29:41;99478.51;;;21.64;35.91
60646;BME280;46462;32.608;-117.032;2023-01-29T05:32:08;99479.70;;;21.70;35.86
60646;BME280;46462;32.608;-117.032;2023-01-29T05:34:39;99479.77;;;21.71;35.84
60646;BME280;46462;32.608;-117.032;2023-01-29T05:37:09;99481.72;;;21.69;35.92
60646;BME280;46462;32.608;-117.032;2023-01-29T05:39:39;99478.94;;;21.69;35.87
60646;BME280;46462;32.608;-117.032;2023-01-29T05:42:09;99478.64;;;21.69;35.85
60646;BME280;46462;32.608;-117.032;2023-01-29T05:44:40;99475.46;;;21.71;35.74
60646;BME280;46462;32.608;-117.032;2023-01-29T05:47:10;99476.08;;;21.75;35.92
60646;BME280;46462;32.608;-117.032;2023-01-29T05:49:40;99475.49;;;21.77;35.90
60646;BME280;46462;32.608;-117.032;2023-01-29T05:52:10;99474.55;;;21.82;35.72
60646;BME280;46462;32.608;-117.032;2023-01-29T05:54:41;99476.18;;;21.77;35.80
60646;BME280;46462;32.608;-117.032;2023-01-29T05:57:11;99476.24;;;21.73;35.93
60646;BME280;46462;32.608;-117.032;2023-01-29T05:59:41;99472.59;;;21.69;35.98
60646;BME280;46462;32.608;-117.032;2023-01-29T06:02:11;99470.13;;;21.70;35.97
60646;BME280;46462;32.608;-117.032;2023-01-29T06:04:41;99469.52;;;21.71;36.00
60646;BME280;46462;32.608;-117.032;2023-01-29T06:07:12;99467.18;;;21.68;35.88
60646;BME280;46462;32.608;-117.032;2023-01-29T06:09:42;99466.18;;;21.65;35.82
60646;BME280;46462;32.608;-117.032;2023-01-29T06:12:12;99469.99;;;21.64;35.95
60646;BME280;46462;32.608;-117.032;2023-01-29T06:14:42;99472.87;;;21.63;35.90
60646;BME280;46462;32.608;-117.032;2023-01-29T06:17:13;99474.97;;;21.58;36.09
60646;BME280;46462;32.608;-117.032;2023-01-29T06:19:43;99476.98;;;21.56;36.11
60646;BME280;46462;32.608;-117.032;2023-01-29T06:22:13;99476.36;;;21.54;36.15
60646;BME280;46462;32.608;-117.032;2023-01-29T06:24:44;99475.02;;;21.52;36.26
60646;BME280;46462;32.608;-117.032;2023-01-29T06:27:14;99478.06;;;21.60;36.03
60646;BME280;46462;32.608;-117.032;2023-01-29T06:29:44;99481.75;;;21.57;36.07
60646;BME280;46462;32.608;-117.032;2023-01-29T06:32:14;99480.36;;;21.62;36.09
60646;BME280;46462;32.608;-117.032;2023-01-29T06:34:44;99478.38;;;21.58;36.04
60646;BME280;46462;32.608;-117.032;2023-01-29T06:37:15;99478.70;;;21.58;36.11
60646;BME280;46462;32.608;-117.032;2023-01-29T06:39:45;99481.62;;;21.54;36.25
60646;BME280;46462;32.608;-117.032;2023-01-29T06:42:15;99483.58;;;21.55;36.02
60646;BME280;46462;32.608;-117.032;2023-01-29T06:44:45;99484.81;;;21.45;36.23
60646;BME280;46462;32.608;-117.032;2023-01-29T06:47:16;99483.55;;;21.39;36.43
60646;BME280;46462;32.608;-117.032;2023-01-29T06:49:46;99482.26;;;21.38;36.36
60646;BME280;46462;32.608;-117.032;2023-01-29T06:52:16;99484.02;;;21.37;36.30
60646;BME280;46462;32.608;-117.032;2023-01-29T06:54:47;99483.10;;;21.49;36.25
60646;BME280;46462;32.608;-117.032;2023-01-29T06:57:16;99478.46;;;21.46;36.12
60646;BME280;46462;32.608;-117.032;2023-01-29T06:59:47;99478.25;;;21.40;36.25
60646;BME280;46462;32.608;-117.032;2023-01-29T07:02:17;99480.31;;;21.43;36.39
60646;BME280;46462;32.608;-117.032;2023-01-29T07:04:47;99480.47;;;21.38;36.31
60646;BME280;46462;32.608;-117.032;2023-01-29T07:07:18;99483.53;;;21.40;36.40
60646;BME280;46462;32.608;-117.032;2023-01-29T07:09:48;99483.38;;;21.37;36.48
60646;BME280;46462;32.608;-117.032;2023-01-29T07:12:18;99484.06;;;21.38;36.40
60646;BME280;46462;32.608;-117.032;2023-01-29T07:14:48;99483.84;;;21.36;36.49
60646;BME280;46462;32.608;-117.032;2023-01-29T07:17:18;99481.80;;;21.43;36.37
60646;BME280;46462;32.608;-117.032;2023-01-29T07:19:49;99482.67;;;21.46;36.34
60646;BME280;46462;32.608;-117.032;2023-01-29T07:22:19;99478.50;;;21.47;36.26
60646;BME280;46462;32.608;-117.032;2023-01-29T07:24:49;99483.26;;;21.45;36.21
60646;BME280;46462;32.608;-117.032;2023-01-29T07:27:20;99481.91;;;21.48;36.19
60646;BME280;46462;32.608;-117.032;2023-01-29T07:29:50;99479.32;;;21.49;36.12
60646;BME280;46462;32.608;-117.032;2023-01-29T07:32:20;99483.60;;;21.49;36.22
60646;BME280;46462;32.608;-117.032;2023-01-29T07:34:50;99481.03;;;21.43;36.35
60646;BME280;46462;32.608;-117.032;2023-01-29T07:37:20;99481.56;;;21.45;36.23
60646;BME280;46462;32.608;-117.032;2023-01-29T07:39:51;99484.15;;;21.44;36.18
60646;BME280;46462;32.608;-117.032;2023-01-29T07:42:21;99482.94;;;21.51;36.19
60646;BME280;46462;32.608;-117.032;2023-01-29T07:44:51;99481.65;;;21.46;36.26
60646;BME280;46462;32.608;-117.032;2023-01-29T07:47:21;99474.39;;;21.46;36.30
60646;BME280;46462;32.608;-117.032;2023-01-29T07:49:52;99470.08;;;21.42;36.39
60646;BME280;46462;32.608;-117.032;2023-01-29T07:52:22;99469.61;;;21.36;36.44
60646;BME280;46462;32.608;-117.032;2023-01-29T07:54:52;99468.39;;;21.34;36.50
60646;BME280;46462;32.608;-117.032;2023-01-29T07:57:23;99466.19;;;21.38;36.46
60646;BME280;46462;32.608;-117.032;2023-01-29T07:59:52;99458.76;;;21.45;36.17
60646;BME280;46462;32.608;-117.032;2023-01-29T08:02:23;99452.07;;;21.47;36.16
60646;BME280;46462;32.608;-117.032;2023-01-29T08:04:53;99446.86;;;21.54;36.14
60646;BME280;46462;32.608;-117.032;2023-01-29T08:07:23;99446.04;;;21.48;36.32
60646;BME280;46462;32.608;-117.032;2023-01-29T08:09:54;99441.77;;;21.51;36.12
60646;BME280;46462;32.608;-117.032;2023-01-29T08:12:24;99440.91;;;21.50;36.24
60646;BME280;46462;32.608;-117.032;2023-01-29T08:14:54;99439.61;;;21.44;36.26
60646;BME280;46462;32.608;-117.032;2023-01-29T08:17:24;99436.99;;;21.40;36.44
60646;BME280;46462;32.608;-117.032;2023-01-29T08:19:55;99433.60;;;21.34;36.41
60646;BME280;46462;32.608;-117.032;2023-01-29T08:22:25;99433.00;;;21.34;36.34
60646;BME280;46462;32.608;-117.032;2023-01-29T08:24:55;99427.43;;;21.32;36.52
60646;BME280;46462;32.608;-117.032;2023-01-29T08:27:25;99432.83;;;21.37;36.41
60646;BME280;46462;32.608;-117.032;2023-01-29T08:29:55;99426.29;;;21.35;36.35
60646;BME280;46462;32.608;-117.032;2023-01-29T08:32:26;99427.29;;;21.36;36.33
60646;BME280;46462;32.608;-117.032;2023-01-29T08:34:56;99430.15;;;21.28;36.46
60646;BME280;46462;32.608;-117.032;2023-01-29T08:37:26;99432.50;;;21.29;36.50
60646;BME280;46462;32.608;-117.032;2023-01-29T08:39:56;99429.64;;;21.32;36.36
60646;BME280;46462;32.608;-117.032;2023-01-29T08:42:27;99428.19;;;21.34;36.33
60646;BME280;46462;32.608;-117.032;2023-01-29T08:44:57;99430.30;;;21.20;36.67
60646;BME280;46462;32.608;-117.032;2023-01-29T08:47:27;99429.82;;;21.25;36.56
60646;BME280;46462;32.608;-117.032;2023-01-29T08:49:57;99430.66;;;21.19;36.75
60646;BME280;46462;32.608;-117.032;2023-01-29T08:52:28;99427.77;;;21.25;36.62
60646;BME280;46462;32.608;-117.032;2023-01-29T08:54:58;99428.94;;;21.19;36.70
60646;BME280;46462;32.608;-117.032;2023-01-29T08:57:28;99428.97;;;21.20;36.63
60646;BME280;46462;32.608;-117.032;2023-01-29T08:59:58;99428.00;;;21.15;36.70
60646;BME280;46462;32.608;-117.032;2023-01-29T09:02:29;99424.76;;;21.21;36.57
60646;BME280;46462;32.608;-117.032;2023-01-29T09:04:59;99421.19;;;21.23;36.62
60646;BME280;46462;32.608;-117.032;2023-01-29T09:07:29;99416.10;;;21.24;36.55
60646;BME280;46462;32.608;-117.032;2023-01-29T09:09:59;99411.81;;;21.27;36.58
60646;BME280;46462;32.608;-117.032;2023-01-29T09:12:30;99406.32;;;21.23;36.58
60646;BME280;46462;32.608;-117.032;2023-01-29T09:15:00;99405.31;;;21.22;36.56
60646;BME280;46462;32.608;-117.032;2023-01-29T09:17:30;99404.17;;;21.21;36.62
60646;BME280;46462;32.608;-117.032;2023-01-29T09:20:00;99403.53;;;21.18;36.78
60646;BME280;46462;32.608;-117.032;2023-01-29T09:22:31;99404.11;;;21.20;36.60
60646;BME280;46462;32.608;-117.032;2023-01-29T09:25:01;99405.42;;;21.19;36.68
60646;BME280;46462;32.608;-117.032;2023-01-29T09:27:31;99401.80;;;21.20;36.61
60646;BME280;46462;32.608;-117.032;2023-01-29T09:30:02;99397.99;;;21.22;36.47
60646;BME280;46462;32.608;-117.032;2023-01-29T09:32:33;99398.95;;;21.21;36.59
60646;BME280;46462;32.608;-117.032;2023-01-29T09:35:02;99396.51;;;21.19;36.54
60646;BME280;46462;32.608;-117.032;2023-01-29T09:37:32;99394.81;;;21.16;36.53
60646;BME280;46462;32.608;-117.032;2023-01-29T09:40:03;99390.83;;;21.19;36.50
60646;BME280;46462;32.608;-117.032;2023-01-29T09:42:36;99390.15;;;21.18;36.55
60646;BME280;46462;32.608;-117.032;2023-01-29T09:45:12;99391.03;;;21.15;36.72
60646;BME280;46462;32.608;-117.032;2023-01-29T09:47:37;99391.35;;;21.14;36.71
60646;BME280;46462;32.608;-117.032;2023-01-29T09:50:12;99390.53;;;21.19;36.68
60646;BME280;46462;32.608;-117.032;2023-01-29T09:52:41;99390.31;;;21.18;36.68
60646;BME280;46462;32.608;-117.032;2023-01-29T09:55:13;99388.38;;;21.23;36.61
60646;BME280;46462;32.608;-117.032;2023-01-29T09:57:44;99384.29;;;21.26;36.60
60646;BME280;46462;32.608;-117.032;2023-01-29T10:00:14;99380.08;;;21.24;36.65
60646;BME280;46462;32.608;-117.032;2023-01-29T10:02:51;99378.55;;;21.23;36.66
60646;BME280;46462;32.608;-117.032;2023-01-29T10:05:21;99374.36;;;21.23;36.69
60646;BME280;46462;32.608;-117.032;2023-01-29T10:07:55;99372.87;;;21.22;36.63
60646;BME280;46462;32.608;-117.032;2023-01-29T10:10:22;99374.46;;;21.19;36.64
60646;BME280;46462;32.608;-117.032;2023-01-29T10:12:50;99370.37;;;21.25;36.66
60646;BME280;46462;32.608;-117.032;2023-01-29T10:15:20;99370.58;;;21.32;36.47
60646;BME280;46462;32.608;-117.032;2023-01-29T10:17:53;99368.34;;;21.34;36.48
60646;BME280;46462;32.608;-117.032;2023-01-29T10:20:23;99369.98;;;21.31;36.49
60646;BME280;46462;32.608;-117.032;2023-01-29T10:22:48;99369.72;;;21.35;36.38
60646;BME280;46462;32.608;-117.032;2023-01-29T10:25:13;99369.30;;;21.26;36.66
60646;BME280;46462;32.608;-117.032;2023-01-29T10:27:46;99364.76;;;21.30;36.54
60646;BME280;46462;32.608;-117.032;2023-01-29T10:30:20;99360.62;;;21.33;36.58
60646;BME280;46462;32.608;-117.032;2023-01-29T10:32:42;99361.81;;;21.31;36.43
60646;BME280;46462;32.608;-117.032;2023-01-29T10:35:21;99361.55;;;21.10;36.50
60646;BME280;46462;32.608;-117.032;2023-01-29T10:37:42;99363.65;;;21.09;36.93
60646;BME280;46462;32.608;-117.032;2023-01-29T10:40:19;99366.63;;;21.08;36.90
60646;BME280;46462;32.608;-117.032;2023-01-29T10:42:46;99363.92;;;21.14;36.86
60646;BME280;46462;32.608;-117.032;2023-01-29T10:45:20;99359.83;;;21.12;36.64
60646;BME280;46462;32.608;-117.032;2023-01-29T10:50:36;99359.40;;;21.09;36.82
60646;BME280;46462;32.608;-117.032;2023-01-29T10:52:55;99358.32;;;21.07;36.84
60646;BME280;46462;32.608;-117.032;2023-01-29T10:55:24;99355.40;;;21.06;36.98
60646;BME280;46462;32.608;-117.032;2023-01-29T10:57:55;99355.60;;;21.07;36.98
60646;BME280;46462;32.608;-117.032;2023-01-29T11:00:18;99354.52;;;21.14;36.89
60646;BME280;46462;32.608;-117.032;2023-01-29T11:02:47;99356.12;;;21.17;36.99
60646;BME280;46462;32.608;-117.032;2023-01-29T11:05:20;99357.48;;;21.18;37.05
60646;BME280;46462;32.608;-117.032;2023-01-29T11:07:46;99349.09;;;21.26;36.96
60646;BME280;46462;32.608;-117.032;2023-01-29T11:10:17;99353.53;;;21.16;37.10
60646;BME280;46462;32.608;-117.032;2023-01-29T11:12:46;99351.45;;;21.10;37.08
60646;BME280;46462;32.608;-117.032;2023-01-29T11:15:18;99348.41;;;21.01;37.29
60646;BME280;46462;32.608;-117.032;2023-01-29T11:20:25;99338.96;;;21.05;37.46
60646;BME280;46462;32.608;-117.032;2023-01-29T11:22:53;99337.25;;;21.13;37.23
60646;BME280;46462;32.608;-117.032;2023-01-29T11:25:18;99337.10;;;21.16;37.29
60646;BME280;46462;32.608;-117.032;2023-01-29T11:27:51;99342.07;;;21.17;37.24
60646;BME280;46462;32.608;-117.032;2023-01-29T11:30:23;99338.96;;;21.12;37.34
60646;BME280;46462;32.608;-117.032;2023-01-29T11:32:54;99336.95;;;21.10;37.29
60646;BME280;46462;32.608;-117.032;2023-01-29T11:35:22;99335.46;;;21.14;37.38
60646;BME280;46462;32.608;-117.032;2023-01-29T11:37:48;99339.21;;;21.17;37.22
60646;BME280;46462;32.608;-117.032;2023-01-29T11:42:50;99349.10;;;21.14;37.30
60646;BME280;46462;32.608;-117.032;2023-01-29T11:45:25;99345.98;;;21.08;37.26
60646;BME280;46462;32.608;-117.032;2023-01-29T11:47:51;99343.84;;;21.11;37.35
60646;BME280;46462;32.608;-117.032;2023-01-29T11:50:22;99340.64;;;21.03;37.52
60646;BME280;46462;32.608;-117.032;2023-01-29T11:52:50;99339.61;;;21.02;37.49
60646;BME280;46462;32.608;-117.032;2023-01-29T11:55:23;99342.45;;;21.07;37.37
60646;BME280;46462;32.608;-117.032;2023-01-29T11:57:52;99341.65;;;21.05;37.37
60646;BME280;46462;32.608;-117.032;2023-01-29T12:00:23;99344.11;;;21.01;37.66
60646;BME280;46462;32.608;-117.032;2023-01-29T12:02:54;99344.92;;;21.00;37.50
60646;BME280;46462;32.608;-117.032;2023-01-29T12:05:23;99344.07;;;20.96;37.55
60646;BME280;46462;32.608;-117.032;2023-01-29T12:07:54;99346.25;;;21.00;37.64
60646;BME280;46462;32.608;-117.032;2023-01-29T12:10:30;99349.12;;;20.95;37.54
60646;BME280;46462;32.608;-117.032;2023-01-29T12:12:52;99353.25;;;20.92;37.76
60646;BME280;46462;32.608;-117.032;2023-01-29T12:15:22;99352.55;;;20.94;37.70
60646;BME280;46462;32.608;-117.032;2023-01-29T12:17:58;99356.67;;;20.96;37.50
60646;BME280;46462;32.608;-117.032;2023-01-29T12:20:28;99357.15;;;21.00;37.50
60646;BME280;46462;32.608;-117.032;2023-01-29T12:23:00;99362.01;;;20.96;37.55
60646;BME280;46462;32.608;-117.032;2023-01-29T12:25:39;99361.55;;;20.96;37.55
60646;BME280;46462;32.608;-117.032;2023-01-29T12:27:57;99358.90;;;20.99;37.64
60646;BME280;46462;32.608;-117.032;2023-01-29T12:30:28;99356.96;;;21.03;37.47
60646;BME280;46462;32.608;-117.032;2023-01-29T12:32:58;99355.44;;;21.09;37.43
60646;BME280;46462;32.608;-117.032;2023-01-29T12:35:27;99354.96;;;21.08;37.49
60646;BME280;46462;32.608;-117.032;2023-01-29T12:37:57;99355.99;;;21.03;37.62
60646;BME280;46462;32.608;-117.032;2023-01-29T12:40:28;99351.34;;;20.95;37.68
60646;BME280;46462;32.608;-117.032;2023-01-29T12:43:00;99353.47;;;20.95;37.77
60646;BME280;46462;32.608;-117.032;2023-01-29T12:45:26;99349.86;;;20.96;37.81
60646;BME280;46462;32.608;-117.032;2023-01-29T12:47:58;99348.73;;;20.93;37.71
60646;BME280;46462;32.608;-117.032;2023-01-29T12:50:28;99347.62;;;20.90;37.76
60646;BME280;46462;32.608;-117.032;2023-01-29T12:52:58;99346.66;;;20.97;37.80
60646;BME280;46462;32.608;-117.032;2023-01-29T12:55:29;99341.48;;;20.90;37.82
60646;BME280;46462;32.608;-117.032;2023-01-29T12:57:57;99341.67;;;20.99;37.55
60646;BME280;46462;32.608;-117.032;2023-01-29T13:00:28;99341.22;;;20.98;37.59